createdAt,value
2022-12-07T00:00:27.404Z,3.70
2022-12-07T00:06:29.076Z,3.80
2022-12-07T00:12:30.765Z,3.90
2022-12-07T00:18:32.437Z,4.00
2022-12-07T00:24:34.059Z,3.90
2022-12-07T00:30:35.890Z,4.00
2022-12-07T00:36:37.623Z,4.10
2022-12-07T00:42:39.325Z,4.10
2022-12-07T00:48:41.062Z,4.10
2022-12-07T00:54:42.736Z,4.10
2022-12-07T01:00:44.603Z,4.10
2022-12-07T01:06:46.222Z,4.20
2022-12-07T01:12:47.907Z,4.20
2022-12-07T01:18:52.427Z,4.20
2022-12-07T01:24:54.066Z,4.30
2022-12-07T01:31:03.935Z,4.30
2022-12-07T01:37:05.670Z,4.30
2022-12-07T01:43:33.503Z,4.30
2022-12-07T01:49:35.073Z,4.30
2022-12-07T01:55:39.061Z,4.30
2022-12-07T02:01:40.837Z,4.20
2022-12-07T02:07:42.971Z,4.10
2022-12-07T02:13:45.567Z,4.00
2022-12-07T02:19:50.024Z,3.90
2022-12-07T02:26:10.271Z,3.90
2022-12-07T02:32:17.412Z,4.00
2022-12-07T02:38:48.567Z,4.10
2022-12-07T02:44:50.584Z,4.00
2022-12-07T02:50:53.177Z,4.10
2022-12-07T02:57:01.870Z,4.10
2022-12-07T03:03:23.096Z,4.10
2022-12-07T03:09:36.901Z,4.00
2022-12-07T03:15:52.250Z,3.90
2022-12-07T03:21:59.028Z,3.80
2022-12-07T03:28:03.221Z,3.70
2022-12-07T03:34:04.877Z,3.70
2022-12-07T03:40:15.648Z,3.70
2022-12-07T03:46:26.174Z,3.50
2022-12-07T03:52:33.617Z,3.50
2022-12-07T03:58:35.569Z,3.40
2022-12-07T04:04:37.171Z,3.40
2022-12-07T04:10:38.800Z,3.40
2022-12-07T04:16:44.391Z,3.40
2022-12-07T04:22:46.519Z,3.40
2022-12-07T04:28:48.140Z,3.40
2022-12-07T04:34:55.186Z,3.50
2022-12-07T04:40:57.483Z,3.50
2022-12-07T04:46:59.364Z,3.50
2022-12-07T04:53:01.195Z,3.40
2022-12-07T04:59:04.006Z,3.40
2022-12-07T05:05:05.703Z,3.50
2022-12-07T05:11:08.181Z,3.40
2022-12-07T05:17:09.860Z,3.40
2022-12-07T05:23:11.606Z,3.50
2022-12-07T05:29:17.091Z,3.50
2022-12-07T05:35:19.362Z,3.50
2022-12-07T05:41:39.729Z,3.40
2022-12-07T05:47:42.017Z,3.50
2022-12-07T05:53:43.938Z,3.40
2022-12-07T05:59:45.585Z,3.40
2022-12-07T06:05:47.378Z,3.30
2022-12-07T06:12:07.777Z,3.20
2022-12-07T06:18:09.457Z,3.10
2022-12-07T06:24:14.875Z,3.10
2022-12-07T06:30:16.728Z,3.10
2022-12-07T06:36:21.464Z,3.10
2022-12-07T06:42:27.248Z,3.00
2022-12-07T06:48:29.062Z,2.90
2022-12-07T06:54:31.538Z,2.80
2022-12-07T07:00:33.276Z,2.90
2022-12-07T07:06:35.098Z,3.00
2022-12-07T07:12:36.790Z,2.90
2022-12-07T07:18:38.436Z,2.70
2022-12-07T07:24:40.305Z,2.70
2022-12-07T07:30:42.223Z,2.60
2022-12-07T07:36:43.945Z,2.80
2022-12-07T07:42:47.948Z,2.80
2022-12-07T07:48:49.650Z,2.90
2022-12-07T07:54:51.553Z,3.00
2022-12-07T08:00:53.208Z,3.00
2022-12-07T08:06:54.911Z,3.00
2022-12-07T08:13:11.796Z,3.10
2022-12-07T08:19:13.581Z,3.20
2022-12-07T08:25:15.378Z,3.30
2022-12-07T08:31:18.117Z,3.20
2022-12-07T08:37:20.070Z,3.20
2022-12-07T08:43:21.979Z,3.30
2022-12-07T08:49:27.028Z,3.50
2022-12-07T08:55:29.546Z,3.40
2022-12-07T09:01:31.592Z,3.50
2022-12-07T09:07:34.200Z,3.50
2022-12-07T09:13:36.091Z,3.60
2022-12-07T09:19:39.987Z,3.60
2022-12-07T09:25:41.604Z,3.60
2022-12-07T09:31:43.255Z,3.60
2022-12-07T09:37:45.045Z,3.60
2022-12-07T09:43:48.248Z,3.60
2022-12-07T09:49:50.039Z,3.90
2022-12-07T09:55:52.541Z,4.10
2022-12-07T10:01:55.175Z,4.10
2022-12-07T10:07:57.083Z,4.20
2022-12-07T10:14:11.215Z,4.20
2022-12-07T10:20:12.935Z,4.30
2022-12-07T10:26:32.380Z,4.10
2022-12-07T10:32:35.506Z,4.20
2022-12-07T10:38:44.803Z,4.40
2022-12-07T10:44:46.848Z,4.40
2022-12-07T10:50:53.524Z,4.30
2022-12-07T10:57:17.370Z,4.20
2022-12-07T11:03:19.097Z,4.20
2022-12-07T11:09:45.049Z,4.20
2022-12-07T11:15:47.933Z,4.60
2022-12-07T11:21:57.069Z,5.00
2022-12-07T11:28:17.612Z,4.90
2022-12-07T11:34:28.976Z,4.90
2022-12-07T11:40:35.343Z,4.90
2022-12-07T11:46:49.689Z,4.80
2022-12-07T11:53:00.477Z,4.80
2022-12-07T11:59:22.382Z,4.90
2022-12-07T12:05:25.143Z,4.90
2022-12-07T12:11:45.882Z,5.00
2022-12-07T12:17:53.770Z,4.70
2022-12-07T12:24:00.973Z,4.70
2022-12-07T12:30:04.369Z,4.70
2022-12-07T12:36:25.740Z,4.80
2022-12-07T12:42:44.276Z,4.80
2022-12-07T12:48:46.141Z,4.80
2022-12-07T12:55:06.547Z,4.90
2022-12-07T13:01:47.085Z,4.90
2022-12-07T13:08:06.462Z,5.00
2022-12-07T13:14:29.656Z,5.00
2022-12-07T13:20:43.555Z,5.10
2022-12-07T13:26:45.993Z,5.30
2022-12-07T13:32:58.484Z,5.20
2022-12-07T13:39:01.564Z,5.20
2022-12-07T13:45:44.323Z,5.20
2022-12-07T13:51:46.023Z,5.10
2022-12-07T13:57:52.166Z,4.90
2022-12-07T14:03:54.132Z,4.90
2022-12-07T14:10:00.549Z,4.90
2022-12-07T14:16:06.447Z,4.90
2022-12-07T14:22:09.337Z,4.90
2022-12-07T14:28:25.513Z,4.80
2022-12-07T14:34:27.357Z,4.80
2022-12-07T14:40:30.385Z,4.80
2022-12-07T14:46:32.460Z,4.70
2022-12-07T14:58:55.957Z,4.60
2022-12-07T15:04:57.687Z,4.40
2022-12-07T15:10:59.392Z,4.40
2022-12-07T15:17:09.967Z,4.30
2022-12-07T15:23:13.744Z,4.20
2022-12-07T15:29:22.380Z,4.20
2022-12-07T15:35:24.780Z,4.10
2022-12-07T15:41:26.649Z,4.00
2022-12-07T15:47:28.373Z,4.00
2022-12-07T15:53:30.209Z,4.00
2022-12-07T15:59:31.926Z,4.10
2022-12-07T16:05:34.418Z,4.00
2022-12-07T16:11:36.124Z,3.80
2022-12-07T16:17:37.838Z,3.40
2022-12-07T16:23:39.488Z,3.30
2022-12-07T16:29:41.196Z,3.10
2022-12-07T16:35:43.214Z,3.00
2022-12-07T16:41:45.070Z,3.00
2022-12-07T16:47:46.699Z,3.00
2022-12-07T16:53:48.308Z,2.90
2022-12-07T16:59:50.109Z,2.90
2022-12-07T17:05:51.798Z,2.90
2022-12-07T17:11:53.470Z,2.90
2022-12-07T17:17:56.602Z,2.90
2022-12-07T17:24:01.414Z,2.90
2022-12-07T17:30:04.895Z,2.90
2022-12-07T17:36:13.610Z,2.90
2022-12-07T17:42:34.180Z,3.00
2022-12-07T17:48:36.179Z,3.20
2022-12-07T17:54:37.887Z,3.30
2022-12-07T18:00:40.680Z,3.30
2022-12-07T18:06:43.498Z,3.40
2022-12-07T18:12:52.016Z,3.40
2022-12-07T18:18:54.114Z,3.40
2022-12-07T18:24:55.813Z,3.30
2022-12-07T18:37:19.047Z,3.20
2022-12-07T18:43:20.731Z,3.10
2022-12-07T18:49:22.477Z,3.00
2022-12-07T18:55:25.972Z,3.00
2022-12-07T19:01:27.799Z,3.00
2022-12-07T19:07:29.982Z,3.00
2022-12-07T19:13:31.650Z,3.20
2022-12-07T19:19:38.133Z,3.20
2022-12-07T19:25:40.149Z,3.20
2022-12-07T19:31:41.855Z,3.30
2022-12-07T19:37:43.680Z,3.20
2022-12-07T19:43:45.288Z,3.20
2022-12-07T19:49:46.973Z,3.10
2022-12-07T19:55:48.802Z,3.10
2022-12-07T20:01:50.612Z,3.20
2022-12-07T20:07:52.369Z,3.20
2022-12-07T20:13:54.387Z,3.10
2022-12-07T20:19:56.147Z,3.00
2022-12-07T20:26:01.502Z,2.90
2022-12-07T20:32:03.538Z,3.00
2022-12-07T20:38:05.390Z,2.90
2022-12-07T20:44:07.038Z,2.90
2022-12-07T20:50:08.819Z,2.80
2022-12-07T20:56:24.020Z,2.80
2022-12-07T21:02:26.523Z,2.80
2022-12-07T21:08:28.450Z,2.90
2022-12-07T21:14:30.134Z,3.00
2022-12-07T21:20:32.435Z,2.90
2022-12-07T21:26:35.449Z,3.00
2022-12-07T21:32:37.105Z,3.00
2022-12-07T21:38:38.768Z,3.10
2022-12-07T21:44:40.441Z,3.20
2022-12-07T21:50:42.133Z,3.20
2022-12-07T21:56:45.252Z,3.20
2022-12-07T22:02:46.936Z,3.40
2022-12-07T22:08:49.005Z,3.30
2022-12-07T22:15:10.292Z,3.30
2022-12-07T22:21:11.986Z,3.20
2022-12-07T22:27:13.930Z,3.10
2022-12-07T22:33:16.409Z,3.10
2022-12-07T22:39:18.155Z,3.20
2022-12-07T22:45:20.321Z,3.20
2022-12-07T22:51:23.102Z,3.30
2022-12-07T22:57:24.767Z,3.20
2022-12-07T23:03:26.445Z,3.30
2022-12-07T23:09:28.108Z,3.20
2022-12-07T23:15:29.794Z,3.30
2022-12-07T23:21:31.698Z,3.10
2022-12-07T23:27:33.882Z,3.10
2022-12-07T23:33:35.560Z,3.00
2022-12-07T23:39:37.193Z,2.90
2022-12-07T23:45:39.237Z,2.80
2022-12-07T23:51:40.949Z,2.70
2022-12-07T23:57:42.658Z,2.70
